sensor_id;sensor_type;location;lat;lon;timestamp;temperature;humidity
52675;DHT22;38569;52.722;6.440;2023-04-24T00:00:54;9.90;99.90
52675;DHT22;38569;52.722;6.440;2023-04-24T00:03:23;9.90;99.90
52675;DHT22;38569;52.722;6.440;2023-04-24T00:05:48;9.90;99.90
52675;DHT22;38569;52.722;6.440;2023-04-24T00:08:14;9.80;99.90
52675;DHT22;38569;52.722;6.440;2023-04-24T00:10:40;9.80;99.90
52675;DHT22;38569;52.722;6.440;2023-04-24T00:13:06;9.80;99.90
52675;DHT22;38569;52.722;6.440;2023-04-24T00:15:32;9.80;99.90
52675;DHT22;38569;52.722;6.440;2023-04-24T00:17:58;9.80;99.90
52675;DHT22;38569;52.722;6.440;2023-04-24T00:20:24;9.80;99.90
52675;DHT22;38569;52.722;6.440;2023-04-24T00:22:49;9.90;99.90
52675;DHT22;38569;52.722;6.440;2023-04-24T00:25:15;9.90;99.90
52675;DHT22;38569;52.722;6.440;2023-04-24T00:27:41;9.90;99.90
52675;DHT22;38569;52.722;6.440;2023-04-24T00:30:07;9.90;99.90
52675;DHT22;38569;52.722;6.440;2023-04-24T00:32:33;9.90;99.90
52675;DHT22;38569;52.722;6.440;2023-04-24T00:34:59;9.90;99.90
52675;DHT22;38569;52.722;6.440;2023-04-24T00:37:24;9.90;99.90
52675;DHT22;38569;52.722;6.440;2023-04-24T00:39:50;9.90;99.90
52675;DHT22;38569;52.722;6.440;2023-04-24T00:42:16;9.90;99.90
52675;DHT22;38569;52.722;6.440;2023-04-24T00:44:42;9.90;99.90
52675;DHT22;38569;52.722;6.440;2023-04-24T00:47:08;10.00;99.90
52675;DHT22;38569;52.722;6.440;2023-04-24T00:49:33;10.00;99.90
52675;DHT22;38569;52.722;6.440;2023-04-24T00:51:59;10.00;99.90
52675;DHT22;38569;52.722;6.440;2023-04-24T00:54:25;10.00;99.90
52675;DHT22;38569;52.722;6.440;2023-04-24T00:56:51;10.00;99.90
52675;DHT22;38569;52.722;6.440;2023-04-24T00:59:17;10.00;99.90
52675;DHT22;38569;52.722;6.440;2023-04-24T01:01:44;10.00;99.90
52675;DHT22;38569;52.722;6.440;2023-04-24T01:04:11;10.00;99.90
52675;DHT22;38569;52.722;6.440;2023-04-24T01:06:42;10.00;99.90
52675;DHT22;38569;52.722;6.440;2023-04-24T01:09:09;10.10;99.90
52675;DHT22;38569;52.722;6.440;2023-04-24T01:11:36;10.00;99.90
52675;DHT22;38569;52.722;6.440;2023-04-24T01:14:03;10.10;99.90
52675;DHT22;38569;52.722;6.440;2023-04-24T01:16:29;10.10;99.90
52675;DHT22;38569;52.722;6.440;2023-04-24T01:18:55;10.00;99.90
52675;DHT22;38569;52.722;6.440;2023-04-24T01:21:21;9.90;99.90
52675;DHT22;38569;52.722;6.440;2023-04-24T01:23:47;9.90;99.90
52675;DHT22;38569;52.722;6.440;2023-04-24T01:26:14;9.80;99.90
52675;DHT22;38569;52.722;6.440;2023-04-24T01:28:40;9.80;99.90
52675;DHT22;38569;52.722;6.440;2023-04-24T01:31:06;9.70;99.90
52675;DHT22;38569;52.722;6.440;2023-04-24T01:33:32;9.70;99.90
52675;DHT22;38569;52.722;6.440;2023-04-24T01:35:58;9.70;99.90
52675;DHT22;38569;52.722;6.440;2023-04-24T01:38:24;9.60;99.90
52675;DHT22;38569;52.722;6.440;2023-04-24T01:40:50;9.60;99.90
52675;DHT22;38569;52.722;6.440;2023-04-24T01:43:16;9.60;99.90
52675;DHT22;38569;52.722;6.440;2023-04-24T01:45:43;9.50;99.90
52675;DHT22;38569;52.722;6.440;2023-04-24T01:48:09;9.50;99.90
52675;DHT22;38569;52.722;6.440;2023-04-24T01:50:35;9.50;99.90
52675;DHT22;38569;52.722;6.440;2023-04-24T01:53:01;9.40;99.90
52675;DHT22;38569;52.722;6.440;2023-04-24T01:55:27;9.40;99.90
52675;DHT22;38569;52.722;6.440;2023-04-24T01:57:55;9.40;99.90
52675;DHT22;38569;52.722;6.440;2023-04-24T02:00:21;9.40;99.90
52675;DHT22;38569;52.722;6.440;2023-04-24T02:02:47;9.40;99.90
52675;DHT22;38569;52.722;6.440;2023-04-24T02:05:12;9.40;99.90
52675;DHT22;38569;52.722;6.440;2023-04-24T02:07:38;9.40;99.90
52675;DHT22;38569;52.722;6.440;2023-04-24T02:10:04;9.50;99.90
52675;DHT22;38569;52.722;6.440;2023-04-24T02:12:30;9.40;99.90
52675;DHT22;38569;52.722;6.440;2023-04-24T02:14:56;9.40;99.90
52675;DHT22;38569;52.722;6.440;2023-04-24T02:17:22;9.40;99.90
52675;DHT22;38569;52.722;6.440;2023-04-24T02:19:48;9.40;99.90
52675;DHT22;38569;52.722;6.440;2023-04-24T02:22:13;9.40;99.90
52675;DHT22;38569;52.722;6.440;2023-04-24T02:24:39;9.40;99.90
52675;DHT22;38569;52.722;6.440;2023-04-24T02:27:05;9.40;99.90
52675;DHT22;38569;52.722;6.440;2023-04-24T02:29:31;9.40;99.90
52675;DHT22;38569;52.722;6.440;2023-04-24T02:31:57;9.40;99.90
52675;DHT22;38569;52.722;6.440;2023-04-24T02:34:23;9.40;99.90
52675;DHT22;38569;52.722;6.440;2023-04-24T02:36:49;9.40;99.90
52675;DHT22;38569;52.722;6.440;2023-04-24T02:39:15;9.40;99.90
52675;DHT22;38569;52.722;6.440;2023-04-24T02:41:44;9.40;99.90
52675;DHT22;38569;52.722;6.440;2023-04-24T02:44:10;9.40;99.90
52675;DHT22;38569;52.722;6.440;2023-04-24T02:46:35;9.40;99.90
52675;DHT22;38569;52.722;6.440;2023-04-24T02:49:01;9.40;99.90
52675;DHT22;38569;52.722;6.440;2023-04-24T02:51:28;9.40;99.90
52675;DHT22;38569;52.722;6.440;2023-04-24T02:53:54;9.40;99.90
52675;DHT22;38569;52.722;6.440;2023-04-24T02:56:19;9.40;99.90
52675;DHT22;38569;52.722;6.440;2023-04-24T02:58:45;9.40;99.90
52675;DHT22;38569;52.722;6.440;2023-04-24T03:01:11;9.40;99.90
52675;DHT22;38569;52.722;6.440;2023-04-24T03:03:38;9.40;99.90
52675;DHT22;38569;52.722;6.440;2023-04-24T03:06:04;9.40;99.90
52675;DHT22;38569;52.722;6.440;2023-04-24T03:08:31;9.40;99.90
52675;DHT22;38569;52.722;6.440;2023-04-24T03:10:57;9.40;99.90
52675;DHT22;38569;52.722;6.440;2023-04-24T03:13:23;9.40;99.90
52675;DHT22;38569;52.722;6.440;2023-04-24T03:15:49;9.40;99.90
52675;DHT22;38569;52.722;6.440;2023-04-24T03:18:14;9.40;99.90
52675;DHT22;38569;52.722;6.440;2023-04-24T03:20:40;9.40;99.90
52675;DHT22;38569;52.722;6.440;2023-04-24T03:23:06;9.40;99.90
52675;DHT22;38569;52.722;6.440;2023-04-24T03:25:32;9.40;99.90
52675;DHT22;38569;52.722;6.440;2023-04-24T03:27:57;9.40;99.90
52675;DHT22;38569;52.722;6.440;2023-04-24T03:30:23;9.40;99.90
52675;DHT22;38569;52.722;6.440;2023-04-24T03:32:49;9.40;99.90
52675;DHT22;38569;52.722;6.440;2023-04-24T03:35:15;9.40;99.90
52675;DHT22;38569;52.722;6.440;2023-04-24T03:37:40;9.30;99.90
52675;DHT22;38569;52.722;6.440;2023-04-24T03:40:07;9.30;99.90
52675;DHT22;38569;52.722;6.440;2023-04-24T03:42:33;9.30;99.90
52675;DHT22;38569;52.722;6.440;2023-04-24T03:44:59;9.30;99.90
52675;DHT22;38569;52.722;6.440;2023-04-24T03:47:24;9.30;99.90
52675;DHT22;38569;52.722;6.440;2023-04-24T03:49:50;9.30;99.90
52675;DHT22;38569;52.722;6.440;2023-04-24T03:52:16;9.30;99.90
52675;DHT22;38569;52.722;6.440;2023-04-24T03:54:42;9.40;99.90
52675;DHT22;38569;52.722;6.440;2023-04-24T03:57:07;9.40;99.90
52675;DHT22;38569;52.722;6.440;2023-04-24T03:59:33;9.40;99.90
52675;DHT22;38569;52.722;6.440;2023-04-24T04:01:59;9.40;99.90
52675;DHT22;38569;52.722;6.440;2023-04-24T04:04:24;9.40;99.90
52675;DHT22;38569;52.722;6.440;2023-04-24T04:06:50;9.40;99.90
52675;DHT22;38569;52.722;6.440;2023-04-24T04:09:16;9.40;99.90
52675;DHT22;38569;52.722;6.440;2023-04-24T04:11:42;9.40;99.90
52675;DHT22;38569;52.722;6.440;2023-04-24T04:14:08;9.40;99.90
52675;DHT22;38569;52.722;6.440;2023-04-24T04:16:33;9.40;99.90
52675;DHT22;38569;52.722;6.440;2023-04-24T04:18:59;9.30;99.90
52675;DHT22;38569;52.722;6.440;2023-04-24T04:21:25;9.30;99.90
52675;DHT22;38569;52.722;6.440;2023-04-24T04:23:52;9.30;99.90
52675;DHT22;38569;52.722;6.440;2023-04-24T04:26:18;9.30;99.90
52675;DHT22;38569;52.722;6.440;2023-04-24T04:28:44;9.30;99.90
52675;DHT22;38569;52.722;6.440;2023-04-24T04:31:10;9.30;99.90
52675;DHT22;38569;52.722;6.440;2023-04-24T04:33:36;9.20;99.90
52675;DHT22;38569;52.722;6.440;2023-04-24T04:36:03;9.20;99.90
52675;DHT22;38569;52.722;6.440;2023-04-24T04:38:31;9.20;99.90
52675;DHT22;38569;52.722;6.440;2023-04-24T04:40:56;9.10;99.90
52675;DHT22;38569;52.722;6.440;2023-04-24T04:43:25;9.10;99.90
52675;DHT22;38569;52.722;6.440;2023-04-24T04:45:52;9.10;99.90
52675;DHT22;38569;52.722;6.440;2023-04-24T04:48:18;9.10;99.90
52675;DHT22;38569;52.722;6.440;2023-04-24T04:50:44;9.10;99.90
52675;DHT22;38569;52.722;6.440;2023-04-24T04:53:10;9.10;99.90
52675;DHT22;38569;52.722;6.440;2023-04-24T04:55:37;9.10;99.90
52675;DHT22;38569;52.722;6.440;2023-04-24T04:58:02;9.10;99.90
52675;DHT22;38569;52.722;6.440;2023-04-24T05:00:28;9.10;99.90
52675;DHT22;38569;52.722;6.440;2023-04-24T05:02:59;9.10;99.90
52675;DHT22;38569;52.722;6.440;2023-04-24T05:05:25;9.10;99.90
52675;DHT22;38569;52.722;6.440;2023-04-24T05:07:51;9.20;99.90
52675;DHT22;38569;52.722;6.440;2023-04-24T05:10:17;9.20;99.90
52675;DHT22;38569;52.722;6.440;2023-04-24T05:12:42;9.20;99.90
52675;DHT22;38569;52.722;6.440;2023-04-24T05:15:08;9.10;99.90
52675;DHT22;38569;52.722;6.440;2023-04-24T05:17:35;9.20;99.90
52675;DHT22;38569;52.722;6.440;2023-04-24T05:20:02;9.20;99.90
52675;DHT22;38569;52.722;6.440;2023-04-24T05:22:31;9.30;99.90
52675;DHT22;38569;52.722;6.440;2023-04-24T05:24:56;9.30;99.90
52675;DHT22;38569;52.722;6.440;2023-04-24T05:27:23;9.40;99.90
52675;DHT22;38569;52.722;6.440;2023-04-24T05:29:48;9.40;99.90
52675;DHT22;38569;52.722;6.440;2023-04-24T05:32:14;9.60;99.90
52675;DHT22;38569;52.722;6.440;2023-04-24T05:34:40;9.60;99.90
52675;DHT22;38569;52.722;6.440;2023-04-24T05:37:06;9.70;99.90
52675;DHT22;38569;52.722;6.440;2023-04-24T05:39:34;9.80;99.90
52675;DHT22;38569;52.722;6.440;2023-04-24T05:42:00;9.80;99.90
52675;DHT22;38569;52.722;6.440;2023-04-24T05:44:27;9.90;99.90
52675;DHT22;38569;52.722;6.440;2023-04-24T05:46:56;9.90;99.90
52675;DHT22;38569;52.722;6.440;2023-04-24T05:49:22;9.80;99.90
52675;DHT22;38569;52.722;6.440;2023-04-24T05:51:53;9.90;99.90
52675;DHT22;38569;52.722;6.440;2023-04-24T05:54:19;9.90;99.90
52675;DHT22;38569;52.722;6.440;2023-04-24T05:56:45;9.90;99.90
52675;DHT22;38569;52.722;6.440;2023-04-24T05:59:11;9.80;99.90
52675;DHT22;38569;52.722;6.440;2023-04-24T06:01:37;9.90;99.90
52675;DHT22;38569;52.722;6.440;2023-04-24T06:04:03;9.90;99.90
52675;DHT22;38569;52.722;6.440;2023-04-24T06:06:29;9.90;99.90
52675;DHT22;38569;52.722;6.440;2023-04-24T06:08:56;9.90;99.90
52675;DHT22;38569;52.722;6.440;2023-04-24T06:11:22;9.90;99.90
52675;DHT22;38569;52.722;6.440;2023-04-24T06:13:48;10.00;99.90
52675;DHT22;38569;52.722;6.440;2023-04-24T06:16:14;10.00;99.90
52675;DHT22;38569;52.722;6.440;2023-04-24T06:18:39;10.00;99.90
52675;DHT22;38569;52.722;6.440;2023-04-24T06:21:05;10.10;99.90
52675;DHT22;38569;52.722;6.440;2023-04-24T06:23:31;10.10;99.90
52675;DHT22;38569;52.722;6.440;2023-04-24T06:25:59;10.00;99.90
52675;DHT22;38569;52.722;6.440;2023-04-24T06:28:25;10.00;99.90
52675;DHT22;38569;52.722;6.440;2023-04-24T06:30:51;10.10;99.90
52675;DHT22;38569;52.722;6.440;2023-04-24T06:33:17;10.10;99.90
52675;DHT22;38569;52.722;6.440;2023-04-24T06:35:43;10.00;99.90
52675;DHT22;38569;52.722;6.440;2023-04-24T06:38:08;10.10;99.90
52675;DHT22;38569;52.722;6.440;2023-04-24T06:40:34;10.10;99.90
52675;DHT22;38569;52.722;6.440;2023-04-24T06:43:00;10.00;99.90
52675;DHT22;38569;52.722;6.440;2023-04-24T06:45:29;10.10;99.90
52675;DHT22;38569;52.722;6.440;2023-04-24T06:47:55;10.10;99.90
52675;DHT22;38569;52.722;6.440;2023-04-24T06:50:21;10.10;99.90
52675;DHT22;38569;52.722;6.440;2023-04-24T06:52:47;10.10;99.90
52675;DHT22;38569;52.722;6.440;2023-04-24T06:55:13;10.10;99.90
52675;DHT22;38569;52.722;6.440;2023-04-24T06:57:40;10.00;99.90
52675;DHT22;38569;52.722;6.440;2023-04-24T07:00:06;10.00;99.90
52675;DHT22;38569;52.722;6.440;2023-04-24T07:02:34;10.00;99.90
52675;DHT22;38569;52.722;6.440;2023-04-24T07:05:00;10.00;99.90
52675;DHT22;38569;52.722;6.440;2023-04-24T07:07:27;10.00;99.90
52675;DHT22;38569;52.722;6.440;2023-04-24T07:09:53;10.00;99.90
52675;DHT22;38569;52.722;6.440;2023-04-24T07:12:19;10.00;99.90
52675;DHT22;38569;52.722;6.440;2023-04-24T07:14:50;9.90;99.90
52675;DHT22;38569;52.722;6.440;2023-04-24T07:17:16;10.00;99.90
52675;DHT22;38569;52.722;6.440;2023-04-24T07:19:44;10.00;99.90
52675;DHT22;38569;52.722;6.440;2023-04-24T07:22:10;10.00;99.90
52675;DHT22;38569;52.722;6.440;2023-04-24T07:24:43;10.00;99.90
52675;DHT22;38569;52.722;6.440;2023-04-24T07:27:09;9.90;99.90
52675;DHT22;38569;52.722;6.440;2023-04-24T07:29:34;9.90;99.90
52675;DHT22;38569;52.722;6.440;2023-04-24T07:32:01;10.00;99.90
52675;DHT22;38569;52.722;6.440;2023-04-24T07:34:26;9.90;99.90
52675;DHT22;38569;52.722;6.440;2023-04-24T07:36:52;9.90;99.90
52675;DHT22;38569;52.722;6.440;2023-04-24T07:39:18;10.00;99.90
52675;DHT22;38569;52.722;6.440;2023-04-24T07:41:44;10.00;99.90
52675;DHT22;38569;52.722;6.440;2023-04-24T07:44:09;10.00;99.90
52675;DHT22;38569;52.722;6.440;2023-04-24T07:46:35;10.00;99.90
52675;DHT22;38569;52.722;6.440;2023-04-24T07:49:01;10.00;99.90
52675;DHT22;38569;52.722;6.440;2023-04-24T07:51:27;9.90;99.90
52675;DHT22;38569;52.722;6.440;2023-04-24T07:53:53;9.90;99.90
52675;DHT22;38569;52.722;6.440;2023-04-24T07:56:20;9.90;99.90
52675;DHT22;38569;52.722;6.440;2023-04-24T07:58:49;9.80;99.90
52675;DHT22;38569;52.722;6.440;2023-04-24T08:01:14;9.80;99.90
52675;DHT22;38569;52.722;6.440;2023-04-24T08:03:40;9.80;99.90
52675;DHT22;38569;52.722;6.440;2023-04-24T08:06:06;9.80;99.90
52675;DHT22;38569;52.722;6.440;2023-04-24T08:08:32;9.90;99.90
52675;DHT22;38569;52.722;6.440;2023-04-24T08:10:58;9.80;99.90
52675;DHT22;38569;52.722;6.440;2023-04-24T08:13:23;9.80;99.90
52675;DHT22;38569;52.722;6.440;2023-04-24T08:15:49;9.60;99.90
52675;DHT22;38569;52.722;6.440;2023-04-24T08:18:15;9.50;99.90
52675;DHT22;38569;52.722;6.440;2023-04-24T08:20:41;9.50;99.90
52675;DHT22;38569;52.722;6.440;2023-04-24T08:23:07;9.50;99.90
52675;DHT22;38569;52.722;6.440;2023-04-24T08:25:33;9.50;99.90
52675;DHT22;38569;52.722;6.440;2023-04-24T08:28:02;9.60;99.90
52675;DHT22;38569;52.722;6.440;2023-04-24T08:30:28;9.60;99.90
52675;DHT22;38569;52.722;6.440;2023-04-24T08:32:54;9.50;99.90
52675;DHT22;38569;52.722;6.440;2023-04-24T08:35:20;9.50;99.90
52675;DHT22;38569;52.722;6.440;2023-04-24T08:37:46;9.50;99.90
52675;DHT22;38569;52.722;6.440;2023-04-24T08:40:16;9.40;99.90
52675;DHT22;38569;52.722;6.440;2023-04-24T08:42:43;9.40;99.90
52675;DHT22;38569;52.722;6.440;2023-04-24T08:45:13;9.30;99.90
52675;DHT22;38569;52.722;6.440;2023-04-24T08:47:41;9.20;99.90
52675;DHT22;38569;52.722;6.440;2023-04-24T08:50:08;9.30;99.90
52675;DHT22;38569;52.722;6.440;2023-04-24T08:52:35;9.30;99.90
52675;DHT22;38569;52.722;6.440;2023-04-24T08:55:01;9.20;99.90
52675;DHT22;38569;52.722;6.440;2023-04-24T08:57:28;9.10;99.90
52675;DHT22;38569;52.722;6.440;2023-04-24T08:59:55;9.00;99.90
52675;DHT22;38569;52.722;6.440;2023-04-24T09:02:21;8.90;99.90
52675;DHT22;38569;52.722;6.440;2023-04-24T09:04:48;8.90;99.90
52675;DHT22;38569;52.722;6.440;2023-04-24T09:07:18;9.00;99.90
52675;DHT22;38569;52.722;6.440;2023-04-24T09:09:45;8.90;99.90
52675;DHT22;38569;52.722;6.440;2023-04-24T09:12:11;9.00;99.90
52675;DHT22;38569;52.722;6.440;2023-04-24T09:14:38;9.00;99.90
52675;DHT22;38569;52.722;6.440;2023-04-24T09:17:08;9.00;99.90
52675;DHT22;38569;52.722;6.440;2023-04-24T09:19:33;9.00;99.90
52675;DHT22;38569;52.722;6.440;2023-04-24T09:21:59;8.90;99.90
52675;DHT22;38569;52.722;6.440;2023-04-24T09:24:25;9.00;99.90
52675;DHT22;38569;52.722;6.440;2023-04-24T09:26:58;9.00;99.90
52675;DHT22;38569;52.722;6.440;2023-04-24T09:29:24;9.10;99.90
52675;DHT22;38569;52.722;6.440;2023-04-24T09:31:50;9.10;99.90
52675;DHT22;38569;52.722;6.440;2023-04-24T09:34:22;9.00;99.90
52675;DHT22;38569;52.722;6.440;2023-04-24T09:36:48;9.10;99.90
52675;DHT22;38569;52.722;6.440;2023-04-24T09:39:15;9.10;99.90
52675;DHT22;38569;52.722;6.440;2023-04-24T09:41:46;9.10;99.90
52675;DHT22;38569;52.722;6.440;2023-04-24T09:44:23;9.10;99.90
52675;DHT22;38569;52.722;6.440;2023-04-24T09:46:58;9.20;99.90
52675;DHT22;38569;52.722;6.440;2023-04-24T09:49:28;9.40;99.90
52675;DHT22;38569;52.722;6.440;2023-04-24T09:52:11;9.50;99.90
52675;DHT22;38569;52.722;6.440;2023-04-24T09:54:38;9.60;99.90
52675;DHT22;38569;52.722;6.440;2023-04-24T09:57:04;9.70;99.90
52675;DHT22;38569;52.722;6.440;2023-04-24T09:59:30;9.80;99.90
52675;DHT22;38569;52.722;6.440;2023-04-24T10:01:56;9.90;99.90
52675;DHT22;38569;52.722;6.440;2023-04-24T10:04:26;9.90;99.90
52675;DHT22;38569;52.722;6.440;2023-04-24T10:06:54;9.90;99.90
52675;DHT22;38569;52.722;6.440;2023-04-24T10:09:26;9.90;99.90
52675;DHT22;38569;52.722;6.440;2023-04-24T10:11:54;9.70;99.90
52675;DHT22;38569;52.722;6.440;2023-04-24T10:14:24;9.70;99.90
52675;DHT22;38569;52.722;6.440;2023-04-24T10:16:53;9.50;99.90
52675;DHT22;38569;52.722;6.440;2023-04-24T10:19:20;9.40;99.90
52675;DHT22;38569;52.722;6.440;2023-04-24T10:21:46;9.20;99.90
52675;DHT22;38569;52.722;6.440;2023-04-24T10:24:14;8.90;99.90
52675;DHT22;38569;52.722;6.440;2023-04-24T10:26:41;8.70;99.90
52675;DHT22;38569;52.722;6.440;2023-04-24T10:29:07;8.50;99.90
52675;DHT22;38569;52.722;6.440;2023-04-24T10:31:36;8.50;99.90
52675;DHT22;38569;52.722;6.440;2023-04-24T10:34:04;8.50;99.90
52675;DHT22;38569;52.722;6.440;2023-04-24T10:36:35;8.40;99.90
52675;DHT22;38569;52.722;6.440;2023-04-24T10:39:03;8.40;99.90
52675;DHT22;38569;52.722;6.440;2023-04-24T10:41:31;8.40;99.90
52675;DHT22;38569;52.722;6.440;2023-04-24T10:44:05;8.40;99.90
52675;DHT22;38569;52.722;6.440;2023-04-24T10:46:31;8.40;99.90
52675;DHT22;38569;52.722;6.440;2023-04-24T10:48:57;8.50;99.90
52675;DHT22;38569;52.722;6.440;2023-04-24T10:51:24;8.50;99.90
52675;DHT22;38569;52.722;6.440;2023-04-24T10:54:28;8.60;99.90
52675;DHT22;38569;52.722;6.440;2023-04-24T10:57:25;8.50;99.90
52675;DHT22;38569;52.722;6.440;2023-04-24T11:00:13;8.70;99.90
52675;DHT22;38569;52.722;6.440;2023-04-24T11:02:40;8.70;99.90
52675;DHT22;38569;52.722;6.440;2023-04-24T11:05:15;8.80;99.90
52675;DHT22;38569;52.722;6.440;2023-04-24T11:08:11;9.00;99.90
52675;DHT22;38569;52.722;6.440;2023-04-24T11:10:47;9.20;99.90
52675;DHT22;38569;52.722;6.440;2023-04-24T11:13:22;9.40;99.90
52675;DHT22;38569;52.722;6.440;2023-04-24T11:16:13;9.50;99.90
52675;DHT22;38569;52.722;6.440;2023-04-24T11:18:41;9.60;99.90
52675;DHT22;38569;52.722;6.440;2023-04-24T11:21:12;9.60;99.90
52675;DHT22;38569;52.722;6.440;2023-04-24T11:23:39;9.60;99.90
52675;DHT22;38569;52.722;6.440;2023-04-24T11:26:19;9.60;99.90
52675;DHT22;38569;52.722;6.440;2023-04-24T11:28:50;9.60;99.90
52675;DHT22;38569;52.722;6.440;2023-04-24T11:31:35;9.50;99.90
52675;DHT22;38569;52.722;6.440;2023-04-24T11:34:10;9.40;99.90
52675;DHT22;38569;52.722;6.440;2023-04-24T11:36:36;9.30;99.90
52675;DHT22;38569;52.722;6.440;2023-04-24T11:39:02;9.20;99.90
52675;DHT22;38569;52.722;6.440;2023-04-24T11:41:28;9.10;99.90
52675;DHT22;38569;52.722;6.440;2023-04-24T11:43:55;9.00;99.90
52675;DHT22;38569;52.722;6.440;2023-04-24T11:46:22;9.20;99.90
52675;DHT22;38569;52.722;6.440;2023-04-24T11:48:48;9.30;99.90
52675;DHT22;38569;52.722;6.440;2023-04-24T11:51:14;9.50;99.90
52675;DHT22;38569;52.722;6.440;2023-04-24T11:53:40;9.60;99.90
52675;DHT22;38569;52.722;6.440;2023-04-24T11:56:06;9.60;99.90
52675;DHT22;38569;52.722;6.440;2023-04-24T11:58:38;9.60;99.90
52675;DHT22;38569;52.722;6.440;2023-04-24T12:01:04;9.50;99.90
52675;DHT22;38569;52.722;6.440;2023-04-24T12:03:31;9.40;99.90
52675;DHT22;38569;52.722;6.440;2023-04-24T12:06:10;9.50;99.90
52675;DHT22;38569;52.722;6.440;2023-04-24T12:08:37;9.50;99.90
52675;DHT22;38569;52.722;6.440;2023-04-24T12:11:05;9.50;99.90
52675;DHT22;38569;52.722;6.440;2023-04-24T12:13:33;9.60;99.90
52675;DHT22;38569;52.722;6.440;2023-04-24T12:15:59;9.50;99.90
52675;DHT22;38569;52.722;6.440;2023-04-24T12:18:26;9.40;99.90
52675;DHT22;38569;52.722;6.440;2023-04-24T12:20:52;9.60;99.90
52675;DHT22;38569;52.722;6.440;2023-04-24T12:23:33;9.70;99.90
52675;DHT22;38569;52.722;6.440;2023-04-24T12:26:03;9.90;99.90
52675;DHT22;38569;52.722;6.440;2023-04-24T12:28:35;9.90;99.90
52675;DHT22;38569;52.722;6.440;2023-04-24T12:31:02;9.80;99.90
52675;DHT22;38569;52.722;6.440;2023-04-24T12:33:27;9.70;99.90
52675;DHT22;38569;52.722;6.440;2023-04-24T12:35:57;9.40;99.90
52675;DHT22;38569;52.722;6.440;2023-04-24T12:38:25;9.20;99.90
52675;DHT22;38569;52.722;6.440;2023-04-24T12:41:05;9.10;99.90
52675;DHT22;38569;52.722;6.440;2023-04-24T12:43:32;9.30;99.90
52675;DHT22;38569;52.722;6.440;2023-04-24T12:45:58;9.40;99.90
52675;DHT22;38569;52.722;6.440;2023-04-24T12:48:28;9.50;99.90
52675;DHT22;38569;52.722;6.440;2023-04-24T12:50:54;9.50;99.90
52675;DHT22;38569;52.722;6.440;2023-04-24T12:53:21;9.50;99.90
52675;DHT22;38569;52.722;6.440;2023-04-24T12:55:47;9.50;99.90
52675;DHT22;38569;52.722;6.440;2023-04-24T12:58:19;9.60;99.90
52675;DHT22;38569;52.722;6.440;2023-04-24T13:00:46;9.70;99.90
52675;DHT22;38569;52.722;6.440;2023-04-24T13:03:13;9.70;99.90
52675;DHT22;38569;52.722;6.440;2023-04-24T13:05:39;9.80;99.90
52675;DHT22;38569;52.722;6.440;2023-04-24T13:08:04;9.90;99.90
52675;DHT22;38569;52.722;6.440;2023-04-24T13:10:30;9.80;99.90
52675;DHT22;38569;52.722;6.440;2023-04-24T13:12:56;9.70;99.90
52675;DHT22;38569;52.722;6.440;2023-04-24T13:15:22;9.60;99.90
52675;DHT22;38569;52.722;6.440;2023-04-24T13:17:48;9.50;99.90
52675;DHT22;38569;52.722;6.440;2023-04-24T13:20:14;9.50;99.90
52675;DHT22;38569;52.722;6.440;2023-04-24T13:22:39;9.50;99.90
52675;DHT22;38569;52.722;6.440;2023-04-24T13:25:06;9.40;99.90
52675;DHT22;38569;52.722;6.440;2023-04-24T13:27:32;9.40;99.90
52675;DHT22;38569;52.722;6.440;2023-04-24T13:29:58;9.40;99.90
52675;DHT22;38569;52.722;6.440;2023-04-24T13:32:23;9.40;99.90
52675;DHT22;38569;52.722;6.440;2023-04-24T13:34:50;9.50;99.90
52675;DHT22;38569;52.722;6.440;2023-04-24T13:37:16;9.50;99.90
52675;DHT22;38569;52.722;6.440;2023-04-24T13:39:42;9.40;99.90
52675;DHT22;38569;52.722;6.440;2023-04-24T13:42:08;9.40;99.90
52675;DHT22;38569;52.722;6.440;2023-04-24T13:44:34;9.50;99.90
52675;DHT22;38569;52.722;6.440;2023-04-24T13:47:00;9.60;99.90
52675;DHT22;38569;52.722;6.440;2023-04-24T13:49:26;9.70;99.90
52675;DHT22;38569;52.722;6.440;2023-04-24T13:51:53;9.70;99.90
52675;DHT22;38569;52.722;6.440;2023-04-24T13:54:19;9.70;99.90
52675;DHT22;38569;52.722;6.440;2023-04-24T13:56:45;9.70;99.90
52675;DHT22;38569;52.722;6.440;2023-04-24T13:59:12;9.60;99.90
52675;DHT22;38569;52.722;6.440;2023-04-24T14:01:38;9.50;99.90
52675;DHT22;38569;52.722;6.440;2023-04-24T14:04:04;9.40;99.90
52675;DHT22;38569;52.722;6.440;2023-04-24T14:06:33;9.30;99.90
52675;DHT22;38569;52.722;6.440;2023-04-24T14:08:59;9.10;99.90
52675;DHT22;38569;52.722;6.440;2023-04-24T14:11:26;9.10;99.90
52675;DHT22;38569;52.722;6.440;2023-04-24T14:13:52;9.10;99.90
52675;DHT22;38569;52.722;6.440;2023-04-24T14:16:18;9.10;99.90
52675;DHT22;38569;52.722;6.440;2023-04-24T14:18:44;9.00;99.90
52675;DHT22;38569;52.722;6.440;2023-04-24T14:21:10;9.20;99.90
52675;DHT22;38569;52.722;6.440;2023-04-24T14:23:35;9.20;99.90
52675;DHT22;38569;52.722;6.440;2023-04-24T14:26:02;9.30;99.90
52675;DHT22;38569;52.722;6.440;2023-04-24T14:28:30;9.30;99.90
52675;DHT22;38569;52.722;6.440;2023-04-24T14:30:56;9.20;99.90
52675;DHT22;38569;52.722;6.440;2023-04-24T14:33:21;9.20;99.90
52675;DHT22;38569;52.722;6.440;2023-04-24T14:35:47;9.20;99.90
52675;DHT22;38569;52.722;6.440;2023-04-24T14:38:13;9.30;99.90
52675;DHT22;38569;52.722;6.440;2023-04-24T14:40:40;9.40;99.90
52675;DHT22;38569;52.722;6.440;2023-04-24T14:43:08;9.40;99.90
52675;DHT22;38569;52.722;6.440;2023-04-24T14:45:34;9.40;99.90
52675;DHT22;38569;52.722;6.440;2023-04-24T14:48:00;9.50;99.90
52675;DHT22;38569;52.722;6.440;2023-04-24T14:50:25;9.60;99.90
52675;DHT22;38569;52.722;6.440;2023-04-24T14:52:54;9.60;99.90
52675;DHT22;38569;52.722;6.440;2023-04-24T14:55:22;9.60;99.90
52675;DHT22;38569;52.722;6.440;2023-04-24T14:57:48;9.50;99.90
52675;DHT22;38569;52.722;6.440;2023-04-24T15:00:14;9.50;99.90
52675;DHT22;38569;52.722;6.440;2023-04-24T15:02:42;9.50;99.90
52675;DHT22;38569;52.722;6.440;2023-04-24T15:05:10;9.40;99.90
52675;DHT22;38569;52.722;6.440;2023-04-24T15:07:36;9.40;99.90
52675;DHT22;38569;52.722;6.440;2023-04-24T15:10:03;9.40;99.90
52675;DHT22;38569;52.722;6.440;2023-04-24T15:12:29;9.40;99.90
52675;DHT22;38569;52.722;6.440;2023-04-24T15:14:55;9.40;99.90
52675;DHT22;38569;52.722;6.440;2023-04-24T15:17:20;9.50;99.90
52675;DHT22;38569;52.722;6.440;2023-04-24T15:19:46;9.60;99.90
52675;DHT22;38569;52.722;6.440;2023-04-24T15:22:13;9.70;99.90
52675;DHT22;38569;52.722;6.440;2023-04-24T15:24:39;9.60;99.90
52675;DHT22;38569;52.722;6.440;2023-04-24T15:27:05;9.50;99.90
52675;DHT22;38569;52.722;6.440;2023-04-24T15:29:30;9.30;99.90
52675;DHT22;38569;52.722;6.440;2023-04-24T15:31:56;9.30;99.90
52675;DHT22;38569;52.722;6.440;2023-04-24T15:34:22;9.30;99.90
52675;DHT22;38569;52.722;6.440;2023-04-24T15:36:47;9.40;99.90
52675;DHT22;38569;52.722;6.440;2023-04-24T15:39:13;9.50;99.90
52675;DHT22;38569;52.722;6.440;2023-04-24T15:41:39;9.60;99.90
52675;DHT22;38569;52.722;6.440;2023-04-24T15:44:05;9.60;99.90